createdAt,value
2018-05-26T00:01:21.633Z,4.77
2018-05-26T00:03:50.729Z,4.53
2018-05-26T00:06:19.641Z,4.13
2018-05-26T00:11:23.737Z,5.03
2018-05-26T00:13:52.580Z,4.60
2018-05-26T00:16:21.613Z,4.60
2018-05-26T00:18:50.457Z,4.37
2018-05-26T00:21:19.316Z,3.97
2018-05-26T00:23:48.177Z,4.20
2018-05-26T00:26:17.025Z,5.00
2018-05-26T00:28:45.901Z,4.40
2018-05-26T00:31:14.772Z,4.63
2018-05-26T00:33:43.619Z,5.20
2018-05-26T00:36:12.485Z,5.33
2018-05-26T00:38:41.756Z,4.80
2018-05-26T00:41:10.633Z,4.20
2018-05-26T00:43:39.480Z,4.57
2018-05-26T00:46:08.340Z,4.17
2018-05-26T00:48:37.204Z,4.17
2018-05-26T00:51:06.417Z,3.93
2018-05-26T00:53:35.300Z,3.53
2018-05-26T00:56:04.158Z,4.20
2018-05-26T00:58:33.004Z,3.90
2018-05-26T01:01:02.046Z,3.80
2018-05-26T01:03:30.894Z,4.40
2018-05-26T01:05:59.822Z,3.93
2018-05-26T01:08:28.684Z,4.23
2018-05-26T01:10:57.541Z,4.10
2018-05-26T01:13:26.403Z,4.27
2018-05-26T01:15:55.254Z,3.50
2018-05-26T01:18:24.142Z,4.40
2018-05-26T01:20:53.007Z,4.17
2018-05-26T01:23:21.875Z,4.00
2018-05-26T01:25:50.857Z,4.40
2018-05-26T01:28:19.710Z,4.30
2018-05-26T01:30:48.747Z,4.23
2018-05-26T01:33:17.592Z,4.50
2018-05-26T01:35:46.440Z,3.83
2018-05-26T01:38:15.304Z,4.50
2018-05-26T01:40:44.154Z,4.57
2018-05-26T01:43:13.029Z,3.90
2018-05-26T01:45:41.893Z,4.23
2018-05-26T01:48:11.275Z,4.37
2018-05-26T01:50:40.341Z,3.63
2018-05-26T01:53:09.202Z,4.00
2018-05-26T01:55:38.085Z,4.23
2018-05-26T01:58:06.933Z,4.20
2018-05-26T02:00:35.777Z,3.90
2018-05-26T02:03:04.647Z,4.13
2018-05-26T02:05:33.500Z,4.20
2018-05-26T02:08:02.414Z,3.80
2018-05-26T02:10:31.265Z,3.60
2018-05-26T02:13:00.116Z,4.17
2018-05-26T02:15:28.969Z,3.57
2018-05-26T02:17:58.458Z,3.90
2018-05-26T02:20:27.477Z,3.40
2018-05-26T02:22:56.320Z,3.70
2018-05-26T02:25:25.493Z,3.70
2018-05-26T02:27:55.179Z,3.93
2018-05-26T02:30:24.058Z,3.33
2018-05-26T02:32:52.957Z,3.50
2018-05-26T02:35:21.943Z,3.90
2018-05-26T02:37:50.792Z,4.10
2018-05-26T02:40:19.658Z,3.80
2018-05-26T02:42:48.522Z,3.93
2018-05-26T02:45:17.406Z,3.67
2018-05-26T02:47:46.261Z,3.23
2018-05-26T02:50:15.117Z,3.57
2018-05-26T02:52:43.993Z,3.67
2018-05-26T02:55:12.841Z,3.80
2018-05-26T02:57:41.731Z,3.53
2018-05-26T03:00:11.217Z,3.30
2018-05-26T03:02:40.064Z,3.60
2018-05-26T03:05:14.598Z,3.60
2018-05-26T03:07:49.247Z,3.57
2018-05-26T03:10:23.981Z,3.27
2018-05-26T03:12:58.639Z,3.40
2018-05-26T03:15:27.106Z,3.17
2018-05-26T03:18:08.563Z,3.37
2018-05-26T03:20:37.430Z,3.33
2018-05-26T03:23:06.272Z,3.43
2018-05-26T03:25:35.132Z,3.67
2018-05-26T03:28:03.980Z,4.07
2018-05-26T03:30:32.824Z,3.93
2018-05-26T03:33:01.684Z,3.37
2018-05-26T03:35:30.539Z,3.30
2018-05-26T03:37:59.419Z,5.10
2018-05-26T03:40:28.675Z,3.73
2018-05-26T03:42:57.563Z,4.47
2018-05-26T03:45:26.438Z,3.60
2018-05-26T03:47:55.297Z,3.57
2018-05-26T03:50:24.526Z,3.90
2018-05-26T03:52:53.383Z,3.67
2018-05-26T03:55:28.943Z,3.50
2018-05-26T03:58:03.580Z,4.07
2018-05-26T04:00:32.457Z,3.33
2018-05-26T04:03:01.312Z,3.67
2018-05-26T04:05:30.161Z,3.20
2018-05-26T04:07:59.017Z,3.40
2018-05-26T04:10:27.873Z,3.80
2018-05-26T04:12:56.753Z,3.87
2018-05-26T04:15:25.621Z,3.50
2018-05-26T04:17:54.473Z,4.30
2018-05-26T04:20:23.343Z,3.70
2018-05-26T04:22:52.187Z,3.80
2018-05-26T04:25:21.032Z,4.30
2018-05-26T04:27:50.496Z,3.30
2018-05-26T04:30:19.348Z,3.80
2018-05-26T04:32:48.418Z,3.43
2018-05-26T04:35:17.269Z,4.57
2018-05-26T04:37:46.112Z,4.27
2018-05-26T04:40:14.989Z,3.80
2018-05-26T04:42:43.845Z,3.60
2018-05-26T04:45:12.721Z,3.67
2018-05-26T04:47:41.568Z,4.00
2018-05-26T04:50:10.426Z,4.03
2018-05-26T04:52:39.289Z,4.60
2018-05-26T04:55:08.576Z,3.87
2018-05-26T04:57:37.456Z,4.00
2018-05-26T05:00:06.336Z,4.03
2018-05-26T05:02:35.177Z,4.57
2018-05-26T05:05:04.034Z,3.50
2018-05-26T05:07:32.888Z,4.27
2018-05-26T05:10:02.511Z,4.03
2018-05-26T05:12:31.374Z,3.97
2018-05-26T05:15:00.215Z,3.90
2018-05-26T05:17:29.097Z,3.67
2018-05-26T05:19:57.956Z,3.60
2018-05-26T05:22:26.839Z,3.63
2018-05-26T05:24:55.692Z,4.30
2018-05-26T05:27:24.573Z,4.27
2018-05-26T05:29:53.445Z,4.20
2018-05-26T05:32:22.303Z,3.90
2018-05-26T05:34:51.194Z,3.60
2018-05-26T05:37:20.062Z,3.63
2018-05-26T05:39:48.919Z,3.93
2018-05-26T05:42:17.805Z,4.60
2018-05-26T05:44:46.761Z,4.60
2018-05-26T05:47:15.643Z,4.53
2018-05-26T05:49:44.662Z,4.90
2018-05-26T05:52:13.552Z,4.17
2018-05-26T05:54:42.723Z,4.30
2018-05-26T05:57:11.577Z,4.10
2018-05-26T05:59:40.670Z,4.40
2018-05-26T06:02:09.537Z,4.60
2018-05-26T06:04:38.385Z,4.50
2018-05-26T06:07:07.243Z,4.63
2018-05-26T06:09:36.097Z,4.53
2018-05-26T06:12:04.978Z,4.03
2018-05-26T06:14:33.844Z,4.67
2018-05-26T06:17:02.695Z,4.73
2018-05-26T06:19:31.577Z,4.40
2018-05-26T06:22:00.560Z,4.40
2018-05-26T06:24:29.622Z,4.20
2018-05-26T06:26:58.475Z,4.13
2018-05-26T06:29:27.342Z,4.07
2018-05-26T06:31:56.212Z,5.00
2018-05-26T06:34:25.058Z,4.00
2018-05-26T06:36:53.995Z,4.17
2018-05-26T06:39:23.533Z,4.30
2018-05-26T06:41:52.389Z,4.23
2018-05-26T06:44:21.362Z,4.33
2018-05-26T06:46:50.238Z,4.10
2018-05-26T06:49:19.125Z,4.57
2018-05-26T06:51:47.987Z,4.60
2018-05-26T06:54:16.831Z,4.67
2018-05-26T06:56:45.693Z,4.50
2018-05-26T06:59:14.545Z,4.30
2018-05-26T07:01:43.441Z,4.30
2018-05-26T07:04:12.305Z,3.93
2018-05-26T07:06:41.779Z,4.17
2018-05-26T07:09:10.642Z,4.60
2018-05-26T07:11:39.914Z,4.53
2018-05-26T07:14:08.805Z,5.23
2018-05-26T07:16:38.401Z,5.50
2018-05-26T07:19:07.253Z,5.30
2018-05-26T07:21:36.127Z,4.37
2018-05-26T07:24:05.852Z,4.47
2018-05-26T07:26:34.815Z,5.77
2018-05-26T07:29:03.678Z,4.13
2018-05-26T07:31:32.728Z,5.10
2018-05-26T07:34:01.824Z,4.70
2018-05-26T07:36:30.687Z,5.00
2018-05-26T07:38:59.795Z,4.13
2018-05-26T07:41:29.383Z,4.70
2018-05-26T07:43:58.241Z,4.60
2018-05-26T07:46:27.101Z,4.37
2018-05-26T07:48:55.951Z,5.10
2018-05-26T07:51:24.873Z,5.37
2018-05-26T07:53:53.735Z,5.20
2018-05-26T07:56:22.700Z,5.00
2018-05-26T07:58:51.542Z,4.10
2018-05-26T08:01:20.419Z,3.83
2018-05-26T08:03:50.996Z,4.47
2018-05-26T08:08:55.856Z,5.40
2018-05-26T08:11:27.024Z,4.77
2018-05-26T08:13:55.912Z,5.20
2018-05-26T08:16:24.786Z,4.00
2018-05-26T08:18:53.651Z,5.10
2018-05-26T08:21:22.526Z,4.70
2018-05-26T08:23:51.443Z,5.20
2018-05-26T08:26:20.360Z,4.97
2018-05-26T08:28:49.303Z,4.57
2018-05-26T08:31:18.161Z,5.43
2018-05-26T08:33:47.260Z,5.73
2018-05-26T08:36:16.151Z,4.80
2018-05-26T08:38:45.458Z,4.60
2018-05-26T08:41:14.329Z,5.30
2018-05-26T08:43:43.201Z,4.50
2018-05-26T08:46:12.759Z,5.77
2018-05-26T08:48:41.691Z,5.60
2018-05-26T08:51:11.020Z,5.87
2018-05-26T08:53:40.048Z,5.20
2018-05-26T08:56:09.535Z,4.53
2018-05-26T08:58:38.426Z,4.67
2018-05-26T09:01:07.320Z,5.27
2018-05-26T09:03:36.329Z,4.20
2018-05-26T09:06:05.317Z,4.17
2018-05-26T09:08:34.306Z,4.50
2018-05-26T09:11:03.190Z,4.53
2018-05-26T09:13:32.284Z,4.40
2018-05-26T09:16:01.709Z,4.37
2018-05-26T09:18:30.643Z,3.90
2018-05-26T09:20:59.500Z,4.80
2018-05-26T09:23:28.388Z,4.90
2018-05-26T09:25:58.082Z,5.77
2018-05-26T09:28:29.518Z,4.80
2018-05-26T09:30:58.389Z,5.20
2018-05-26T09:33:27.416Z,4.73
2018-05-26T09:36:05.880Z,4.83
2018-05-26T09:41:15.805Z,5.00
2018-05-26T09:43:44.706Z,5.00
2018-05-26T09:46:14.091Z,5.33
2018-05-26T09:48:43.021Z,4.30
2018-05-26T09:51:11.869Z,5.80
2018-05-26T09:53:40.839Z,4.43
2018-05-26T09:56:09.726Z,4.73
2018-05-26T09:58:38.612Z,4.50
2018-05-26T10:01:07.644Z,5.10
2018-05-26T10:03:36.521Z,4.50
2018-05-26T10:06:05.435Z,4.73
2018-05-26T10:08:34.304Z,4.90
2018-05-26T10:11:03.192Z,4.53
2018-05-26T10:13:32.099Z,4.80
2018-05-26T10:16:01.008Z,5.13
2018-05-26T10:18:29.905Z,4.40
2018-05-26T10:20:58.793Z,4.70
2018-05-26T10:23:27.670Z,4.33
2018-05-26T10:25:56.165Z,4.40
2018-05-26T10:28:24.593Z,4.40
2018-05-26T10:30:52.584Z,3.90
2018-05-26T10:33:20.504Z,4.17
2018-05-26T10:35:48.413Z,5.00
2018-05-26T10:38:16.394Z,4.80
2018-05-26T10:40:44.308Z,4.67
2018-05-26T10:43:12.387Z,4.40
2018-05-26T10:45:40.294Z,4.10
2018-05-26T10:48:08.230Z,4.33
2018-05-26T10:50:36.242Z,3.87
2018-05-26T10:53:04.450Z,4.17
2018-05-26T10:55:32.475Z,4.20
2018-05-26T10:58:00.390Z,4.20
2018-05-26T11:00:28.357Z,4.03
2018-05-26T11:02:57.422Z,3.70
2018-05-26T11:05:25.882Z,3.80
2018-05-26T11:07:54.354Z,4.57
2018-05-26T11:10:22.400Z,3.90
2018-05-26T11:12:50.492Z,4.10
2018-05-26T11:15:19.049Z,3.60
2018-05-26T11:17:47.181Z,3.90
2018-05-26T11:20:15.189Z,4.03
2018-05-26T11:22:44.029Z,4.97
2018-05-26T11:25:12.086Z,4.50
2018-05-26T11:27:40.319Z,4.10
2018-05-26T11:30:08.467Z,4.10
2018-05-26T11:32:36.470Z,4.00
2018-05-26T11:35:04.502Z,3.87
2018-05-26T11:37:32.469Z,4.03
2018-05-26T11:40:01.374Z,3.60
2018-05-26T11:42:29.418Z,4.00
2018-05-26T11:44:57.333Z,4.47
2018-05-26T11:47:25.290Z,4.10
2018-05-26T11:49:53.716Z,3.80
2018-05-26T11:52:22.154Z,3.60
2018-05-26T11:54:51.210Z,3.57
2018-05-26T11:57:19.685Z,3.60
2018-05-26T11:59:47.652Z,3.70
2018-05-26T12:02:15.615Z,3.30
2018-05-26T12:04:43.544Z,3.17
2018-05-26T12:07:11.474Z,3.57
2018-05-26T12:09:39.410Z,3.70
2018-05-26T12:12:07.317Z,3.63
2018-05-26T12:14:35.902Z,3.30
2018-05-26T12:17:04.951Z,3.43
2018-05-26T12:19:33.035Z,2.93
2018-05-26T12:22:01.214Z,2.90
2018-05-26T12:24:29.270Z,4.30
2018-05-26T12:26:57.592Z,2.83
2018-05-26T12:29:25.549Z,3.70
2018-05-26T12:31:53.517Z,2.90
2018-05-26T12:34:21.738Z,2.90
2018-05-26T12:36:50.109Z,3.77
2018-05-26T12:39:18.155Z,3.77
2018-05-26T12:41:46.245Z,3.03
2018-05-26T12:44:14.313Z,3.10
2018-05-26T12:46:42.450Z,3.20
2018-05-26T12:49:10.941Z,3.17
2018-05-26T12:51:39.045Z,3.00
2018-05-26T12:54:07.847Z,3.17
2018-05-26T12:56:51.962Z,3.30
2018-05-26T12:59:20.145Z,3.03
2018-05-26T13:01:48.300Z,3.13
2018-05-26T13:04:17.063Z,2.60
2018-05-26T13:06:45.228Z,3.10
2018-05-26T13:09:13.281Z,3.30
2018-05-26T13:11:41.414Z,2.50
2018-05-26T13:14:09.874Z,2.93
2018-05-26T13:16:37.825Z,3.00
2018-05-26T13:19:06.113Z,2.80
2018-05-26T13:21:34.451Z,3.10
2018-05-26T13:24:03.065Z,2.77
2018-05-26T13:26:31.226Z,2.77
2018-05-26T13:29:00.124Z,3.50
2018-05-26T13:31:28.091Z,2.20
2018-05-26T13:33:56.245Z,2.83
2018-05-26T13:36:24.962Z,2.37
2018-05-26T13:38:52.901Z,2.27
2018-05-26T13:41:21.664Z,2.80
2018-05-26T13:43:49.741Z,2.67
2018-05-26T13:46:17.848Z,2.73
2018-05-26T13:48:45.759Z,2.73
2018-05-26T13:51:23.776Z,2.60
2018-05-26T13:53:52.504Z,2.90
2018-05-26T13:56:20.959Z,2.73
2018-05-26T13:58:48.885Z,2.80
2018-05-26T14:01:17.010Z,2.60
2018-05-26T14:03:45.552Z,2.60
2018-05-26T14:06:14.926Z,2.17
2018-05-26T14:08:43.507Z,2.70
2018-05-26T14:11:11.564Z,2.70
2018-05-26T14:13:40.551Z,2.40
2018-05-26T14:16:08.912Z,3.30
2018-05-26T14:18:36.910Z,2.93
2018-05-26T14:21:04.975Z,2.83
2018-05-26T14:23:32.978Z,3.03
2018-05-26T14:26:01.055Z,2.40
2018-05-26T14:28:29.276Z,2.40
2018-05-26T14:30:57.685Z,2.60
2018-05-26T14:33:25.753Z,3.13
2018-05-26T14:35:53.854Z,2.73
2018-05-26T14:38:23.288Z,3.50
2018-05-26T14:40:51.299Z,2.80
2018-05-26T14:43:19.229Z,3.27
2018-05-26T14:45:47.174Z,3.50
2018-05-26T14:48:15.296Z,3.20
2018-05-26T14:50:43.209Z,3.73
2018-05-26T14:53:11.537Z,3.33
2018-05-26T14:55:39.510Z,3.60
2018-05-26T14:58:08.424Z,2.93
2018-05-26T15:00:36.368Z,3.00
2018-05-26T15:03:04.460Z,3.43
2018-05-26T15:05:33.075Z,3.80
2018-05-26T15:08:01.706Z,3.50
2018-05-26T15:10:29.684Z,3.20
2018-05-26T15:12:57.960Z,3.03
2018-05-26T15:15:26.760Z,2.73
2018-05-26T15:17:54.826Z,3.57
2018-05-26T15:20:22.742Z,3.10
2018-05-26T15:22:50.666Z,2.73
2018-05-26T15:25:19.761Z,3.40
2018-05-26T15:27:47.658Z,3.40
2018-05-26T15:30:15.576Z,2.93
2018-05-26T15:32:44.275Z,3.30
2018-05-26T15:35:12.366Z,3.10
2018-05-26T15:37:40.518Z,3.00
2018-05-26T15:40:09.425Z,2.90
2018-05-26T15:42:38.193Z,3.20
2018-05-26T15:45:06.977Z,2.80
2018-05-26T15:47:34.913Z,2.90
2018-05-26T15:50:03.713Z,3.37
2018-05-26T15:52:31.627Z,2.90
2018-05-26T15:55:01.111Z,3.50
2018-05-26T15:57:29.190Z,3.03
2018-05-26T15:59:57.595Z,3.10
2018-05-26T16:02:25.621Z,3.53
2018-05-26T16:04:54.103Z,3.37
2018-05-26T16:07:22.024Z,3.10
2018-05-26T16:09:50.038Z,2.97
2018-05-26T16:12:18.925Z,3.93
2018-05-26T16:14:47.146Z,3.00
2018-05-26T16:17:16.517Z,3.10
2018-05-26T16:19:44.464Z,3.30
2018-05-26T16:22:13.386Z,3.03
2018-05-26T16:24:42.274Z,3.30
2018-05-26T16:32:55.572Z,2.90
2018-05-26T16:35:24.330Z,3.47
2018-05-26T16:37:52.778Z,3.77
2018-05-26T16:40:20.785Z,3.73
2018-05-26T16:42:49.644Z,3.20
2018-05-26T16:45:17.701Z,3.47
2018-05-26T16:47:46.240Z,3.73
2018-05-26T16:50:14.298Z,3.50
2018-05-26T16:52:42.350Z,3.43
2018-05-26T16:55:10.539Z,3.87
2018-05-26T16:57:39.641Z,3.17
2018-05-26T17:00:07.614Z,3.50
2018-05-26T17:02:35.531Z,3.50
2018-05-26T17:05:03.537Z,3.70
2018-05-26T17:07:31.497Z,3.63
2018-05-26T17:09:59.672Z,3.60
2018-05-26T17:12:27.618Z,3.40
2018-05-26T17:14:56.448Z,4.03
2018-05-26T17:17:24.778Z,3.70
2018-05-26T17:19:52.841Z,3.60
2018-05-26T17:22:21.310Z,3.50
2018-05-26T17:24:49.234Z,4.17
2018-05-26T17:27:17.807Z,3.63
2018-05-26T17:29:45.878Z,3.73
2018-05-26T17:32:13.846Z,3.77
2018-05-26T17:34:41.792Z,3.63
2018-05-26T17:37:10.012Z,3.07
2018-05-26T17:39:37.934Z,3.47
2018-05-26T17:42:05.921Z,3.70
2018-05-26T17:44:33.910Z,3.97
2018-05-26T17:47:02.418Z,4.03
2018-05-26T17:49:30.338Z,3.17
2018-05-26T17:51:58.394Z,3.80
2018-05-26T17:54:26.302Z,3.40
2018-05-26T17:56:54.370Z,3.37
2018-05-26T17:59:22.521Z,3.70
2018-05-26T18:01:50.619Z,4.07
2018-05-26T18:04:19.374Z,3.80
2018-05-26T18:06:47.821Z,4.23
2018-05-26T18:09:16.260Z,3.57
2018-05-26T18:11:44.201Z,3.70
2018-05-26T18:14:12.605Z,4.00
2018-05-26T18:16:40.724Z,3.30
2018-05-26T18:19:08.691Z,4.40
2018-05-26T18:21:36.608Z,4.10
2018-05-26T18:24:04.528Z,4.10
2018-05-26T18:26:32.564Z,4.13
2018-05-26T18:29:00.466Z,4.00
2018-05-26T18:31:28.424Z,3.67
2018-05-26T18:33:57.380Z,3.80
2018-05-26T18:36:25.341Z,4.17
2018-05-26T18:38:53.519Z,4.13
2018-05-26T18:41:22.627Z,4.03
2018-05-26T18:43:50.702Z,3.80
2018-05-26T18:46:19.173Z,4.03
2018-05-26T18:48:47.186Z,4.27
2018-05-26T18:51:15.092Z,5.00
2018-05-26T18:53:43.171Z,4.17
2018-05-26T18:56:11.360Z,3.60
2018-05-26T18:58:39.282Z,4.10
2018-05-26T19:01:08.386Z,4.87
2018-05-26T19:03:36.340Z,3.83
2018-05-26T19:06:05.264Z,4.03
2018-05-26T19:08:33.477Z,4.07
2018-05-26T19:11:01.701Z,4.80
2018-05-26T19:13:29.718Z,4.67
2018-05-26T19:15:57.820Z,4.57
2018-05-26T19:18:27.302Z,4.83
2018-05-26T19:20:55.213Z,4.60
2018-05-26T19:23:23.192Z,5.20
2018-05-26T19:25:51.121Z,5.23
2018-05-26T19:28:19.074Z,5.47
2018-05-26T19:30:47.733Z,4.50
2018-05-26T19:33:16.261Z,5.03
2018-05-26T19:35:44.398Z,4.70
2018-05-26T19:38:12.969Z,4.10
2018-05-26T19:40:40.917Z,4.40
2018-05-26T19:43:08.833Z,4.77
2018-05-26T19:45:36.770Z,4.47
2018-05-26T19:48:04.705Z,4.40
2018-05-26T19:50:33.184Z,4.40
2018-05-26T19:53:01.097Z,5.10
2018-05-26T19:55:29.053Z,5.07
2018-05-26T19:57:57.908Z,5.27
2018-05-26T20:00:25.831Z,4.80
2018-05-26T20:02:53.796Z,4.63
2018-05-26T20:05:21.923Z,5.13
2018-05-26T20:07:50.631Z,4.63
2018-05-26T20:10:18.578Z,4.67
2018-05-26T20:12:47.179Z,5.20
2018-05-26T20:15:15.198Z,4.20
2018-05-26T20:17:43.163Z,5.50
2018-05-26T20:20:11.193Z,4.60
2018-05-26T20:22:39.623Z,4.57
2018-05-26T20:25:07.547Z,5.10
2018-05-26T20:27:35.499Z,4.00
2018-05-26T20:30:03.897Z,4.23
2018-05-26T20:32:31.832Z,4.10
2018-05-26T20:34:59.744Z,4.00
2018-05-26T20:37:27.645Z,3.90
2018-05-26T20:39:56.037Z,3.77
2018-05-26T20:42:24.143Z,4.53
2018-05-26T20:44:52.054Z,4.70
2018-05-26T20:47:20.020Z,3.80
2018-05-26T20:49:47.961Z,4.13
2018-05-26T20:52:16.132Z,4.07
2018-05-26T20:54:44.137Z,4.03
2018-05-26T20:57:12.053Z,4.00
2018-05-26T20:59:40.933Z,3.80
2018-05-26T21:02:09.443Z,4.40
2018-05-26T21:04:38.012Z,3.67
2018-05-26T21:07:06.096Z,4.50
2018-05-26T21:09:37.269Z,4.30
2018-05-26T21:12:05.195Z,4.40
2018-05-26T21:14:33.121Z,3.77
2018-05-26T21:17:01.078Z,4.10
2018-05-26T21:19:29.054Z,3.90
2018-05-26T21:21:56.965Z,3.20
2018-05-26T21:24:25.974Z,4.40
2018-05-26T21:26:53.874Z,3.27
2018-05-26T21:29:21.783Z,3.93
2018-05-26T21:31:49.726Z,4.27
2018-05-26T21:34:17.648Z,3.93
2018-05-26T21:36:45.626Z,3.60
2018-05-26T21:39:13.590Z,3.20
2018-05-26T21:41:41.890Z,3.23
2018-05-26T21:44:09.921Z,3.40
2018-05-26T21:46:37.898Z,3.40
2018-05-26T21:49:06.161Z,3.67
2018-05-26T21:51:34.074Z,3.67
2018-05-26T21:54:02.050Z,3.30
2018-05-26T21:56:30.115Z,3.37
2018-05-26T21:58:58.161Z,3.43
2018-05-26T22:01:26.106Z,3.47
2018-05-26T22:03:54.032Z,3.57
2018-05-26T22:06:21.959Z,3.53
2018-05-26T22:08:59.923Z,3.83
2018-05-26T22:11:39.183Z,3.90
2018-05-26T22:14:07.393Z,3.23
2018-05-26T22:16:35.302Z,3.30
2018-05-26T22:19:03.974Z,3.30
2018-05-26T22:21:31.953Z,3.17
2018-05-26T22:24:01.528Z,3.40
2018-05-26T22:26:29.501Z,3.40
2018-05-26T22:28:58.097Z,3.03
2018-05-26T22:31:26.026Z,3.30
2018-05-26T22:33:53.942Z,3.00
2018-05-26T22:36:21.949Z,3.10
2018-05-26T22:38:49.909Z,3.30
2018-05-26T22:41:17.875Z,3.07
2018-05-26T22:43:46.455Z,3.90
2018-05-26T22:46:14.596Z,3.30
2018-05-26T22:48:43.153Z,4.10
2018-05-26T22:51:12.085Z,3.60
2018-05-26T22:53:40.973Z,3.80
2018-05-26T22:56:09.821Z,2.87
2018-05-26T22:58:39.144Z,3.50
2018-05-26T23:01:08.100Z,2.77
2018-05-26T23:03:37.169Z,3.00
2018-05-26T23:06:06.249Z,3.23
2018-05-26T23:08:35.165Z,5.50
2018-05-26T23:11:04.017Z,3.60
2018-05-26T23:13:32.938Z,3.90
2018-05-26T23:16:01.992Z,3.07
2018-05-26T23:18:30.872Z,3.10
2018-05-26T23:20:59.758Z,3.20
2018-05-26T23:23:28.608Z,3.10
2018-05-26T23:25:57.515Z,3.00
2018-05-26T23:28:26.393Z,3.43
2018-05-26T23:30:56.191Z,2.70
2018-05-26T23:33:25.206Z,3.00
2018-05-26T23:35:55.125Z,3.00
2018-05-26T23:38:24.489Z,2.80
2018-05-26T23:40:54.163Z,2.90
2018-05-26T23:43:23.091Z,2.60
2018-05-26T23:45:52.108Z,2.83
2018-05-26T23:48:20.966Z,3.10
2018-05-26T23:50:49.843Z,2.90
2018-05-26T23:53:18.941Z,3.00
2018-05-26T23:55:47.805Z,2.97
2018-05-26T23:58:16.945Z,3.30
